Time;durP1;ratioP1;P1;durP2;ratioP2;P2;SDS_P1;SDS_P2;PMS_P1;PMS_P2;Temp;Humidity;BMP_temperature;BMP_pressure;BME280_temperature;BME280_humidity;BME280_pressure;Samples;Min_cycle;Max_cycle;Signal;HPM_P1;HPM_P2
2024/04/02 00:00:08;;;;;;;6.88;1.30;;;6.80;99.90;;;;;;5111153;28;20039;-64
2024/04/02 00:02:54;;;;;;;1.83;1.15;;;6.80;99.90;;;;;;5128110;27;20126;-64
2024/04/02 00:05:41;;;;;;;2.35;1.13;;;6.80;99.90;;;;;;5127494;27;20065;-64
2024/04/02 00:08:28;;;;;;;2.90;0.98;;;6.80;99.90;;;;;;5134093;27;20031;-64
2024/04/02 00:11:14;;;;;;;;;;;6.80;99.90;;;;;;5134304;27;20050;-64
2024/04/02 00:14:00;;;;;;;2.38;1.00;;;6.80;99.90;;;;;;5135636;27;20407;-65
2024/04/02 00:16:46;;;;;;;3.80;0.80;;;6.80;99.90;;;;;;5128982;27;20055;-65
2024/04/02 00:19:32;;;;;;;2.97;1.13;;;6.80;99.90;;;;;;5116476;27;20636;-65
2024/04/02 00:22:17;;;;;;;1.73;1.00;;;6.90;99.90;;;;;;5124370;27;20039;-64
2024/04/02 00:25:04;;;;;;;2.08;0.90;;;6.90;99.90;;;;;;5119460;27;20393;-64
2024/04/02 00:27:53;;;;;;;3.50;1.05;;;6.90;99.90;;;;;;5121013;27;20076;-64
2024/04/02 00:30:39;;;;;;;5.35;1.10;;;7.00;99.90;;;;;;5121955;27;20055;-64
2024/04/02 00:33:25;;;;;;;4.47;0.90;;;7.00;99.90;;;;;;5123388;27;20045;-65
2024/04/02 00:36:11;;;;;;;1.33;0.80;;;7.00;99.90;;;;;;5120863;27;20031;-65
2024/04/02 00:38:57;;;;;;;2.37;1.00;;;7.00;99.90;;;;;;5117742;27;20039;-65
2024/04/02 00:41:42;;;;;;;2.55;0.98;;;7.00;99.90;;;;;;5125788;27;20074;-64
2024/04/02 00:44:28;;;;;;;8.35;1.00;;;7.10;99.90;;;;;;5109717;27;20834;-64
2024/04/02 00:47:14;;;;;;;3.08;0.80;;;7.10;99.90;;;;;;5124892;27;20070;-64
2024/04/02 00:50:01;;;;;;;4.60;1.02;;;7.10;99.90;;;;;;5119702;27;20475;-64
2024/04/02 00:52:48;;;;;;;3.70;1.00;;;7.10;99.90;;;;;;5124067;27;20031;-65
2024/04/02 00:55:37;;;;;;;3.45;1.05;;;7.10;99.90;;;;;;5119834;27;20039;-64
2024/04/02 00:58:24;;;;;;;4.22;1.30;;;7.00;99.90;;;;;;5125098;27;20103;-64
2024/04/02 01:01:11;;;;;;;2.35;1.05;;;7.00;99.90;;;;;;5116532;27;20395;-64
2024/04/02 01:03:58;;;;;;;2.88;1.10;;;7.00;99.90;;;;;;5124389;27;20093;-64
2024/04/02 01:06:45;;;;;;;2.50;1.30;;;7.00;99.90;;;;;;5116221;27;20085;-64
2024/04/02 01:09:31;;;;;;;5.60;1.55;;;7.00;99.90;;;;;;5118481;27;20203;-64
2024/04/02 01:12:17;;;;;;;3.20;1.00;;;7.00;99.90;;;;;;5104414;27;20043;-64
2024/04/02 01:15:03;;;;;;;2.80;1.30;;;7.10;99.90;;;;;;5120800;27;20031;-64
2024/04/02 01:17:49;;;;;;;2.05;1.02;;;7.10;99.90;;;;;;5122820;27;20035;-64
2024/04/02 01:20:36;;;;;;;3.15;1.30;;;7.10;99.90;;;;;;5118452;27;20503;-64
2024/04/02 01:23:22;;;;;;;2.80;1.20;;;7.10;99.90;;;;;;5124460;27;20049;-64
2024/04/02 01:26:08;;;;;;;3.33;1.40;;;7.10;99.90;;;;;;5119970;27;20221;-64
2024/04/02 01:28:57;;;;;;;14.07;1.52;;;7.10;99.90;;;;;;5120097;27;20023;-64
2024/04/02 01:31:43;;;;;;;3.00;1.40;;;7.20;99.90;;;;;;5102518;27;20033;-64
2024/04/02 01:34:30;;;;;;;4.07;1.50;;;7.10;99.90;;;;;;5119402;27;20142;-64
2024/04/02 01:37:16;;;;;;;8.38;1.75;;;7.10;99.90;;;;;;5123935;27;20400;-64
2024/04/02 01:40:03;;;;;;;3.88;1.48;;;7.10;99.90;;;;;;5125411;27;20027;-64
2024/04/02 01:42:49;;;;;;;;;;;7.10;99.90;;;;;;5123828;27;20039;-64
2024/04/02 01:45:35;;;;;;;4.85;1.77;;;7.10;99.90;;;;;;5125293;27;19955;-64
2024/04/02 01:48:21;;;;;;;6.20;1.63;;;7.10;99.90;;;;;;5121190;27;20027;-64
2024/04/02 01:51:07;;;;;;;2.50;1.50;;;7.10;99.90;;;;;;5122650;27;20750;-64
2024/04/02 01:53:52;;;;;;;4.68;1.90;;;7.10;99.90;;;;;;5125117;27;20107;-64
2024/04/02 01:56:39;;;;;;;3.63;1.70;;;7.10;99.90;;;;;;5126385;27;20037;-64
2024/04/02 01:59:25;;;;;;;3.78;1.60;;;7.10;99.90;;;;;;5122602;27;20119;-65
2024/04/02 02:02:11;;;;;;;4.53;1.40;;;7.10;99.90;;;;;;5119541;27;20035;-64
2024/04/02 02:04:57;;;;;;;3.57;1.50;;;7.10;99.90;;;;;;5123228;27;20472;-65
2024/04/02 02:07:43;;;;;;;6.97;1.80;;;7.10;99.90;;;;;;5120177;27;20269;-65
2024/04/02 02:10:28;;;;;;;3.22;1.42;;;7.10;99.90;;;;;;5120528;27;20116;-64
2024/04/02 02:13:14;;;;;;;2.95;1.27;;;7.10;99.90;;;;;;5101764;27;20027;-64
2024/04/02 02:16:00;;;;;;;6.13;1.70;;;7.00;99.90;;;;;;5122829;27;20046;-64
2024/04/02 02:18:46;;;;;;;7.18;1.95;;;7.00;99.90;;;;;;5117584;27;20046;-64
2024/04/02 02:21:32;;;;;;;1.95;1.17;;;6.90;99.90;;;;;;5121567;27;20039;-64
2024/04/02 02:24:18;;;;;;;3.63;1.52;;;6.90;99.90;;;;;;5121196;27;20047;-64
2024/04/02 02:27:04;;;;;;;7.07;2.20;;;6.90;99.90;;;;;;5124186;27;20072;-65
2024/04/02 02:29:50;;;;;;;6.20;1.53;;;6.90;99.90;;;;;;5121485;27;20027;-65
2024/04/02 02:32:36;;;;;;;5.00;1.52;;;7.00;99.90;;;;;;5124013;27;20117;-64
2024/04/02 02:35:22;;;;;;;2.65;1.40;;;7.00;99.90;;;;;;5122629;27;20939;-64
2024/04/02 02:38:08;;;;;;;4.60;1.98;;;7.00;99.90;;;;;;5120971;27;20063;-64
2024/04/02 02:41:03;;;;;;;3.60;1.83;;;6.90;99.90;;;;;;5116123;27;20519;-64
2024/04/02 02:43:49;;;;;;;6.03;1.50;;;6.90;99.90;;;;;;5118469;27;20031;-64
2024/04/02 02:46:35;;;;;;;3.42;1.65;;;6.90;99.90;;;;;;5117815;27;20384;-64
2024/04/02 02:49:21;;;;;;;8.40;2.30;;;7.00;99.90;;;;;;5119174;27;20027;-64
2024/04/02 02:52:07;;;;;;;6.40;2.35;;;7.00;99.90;;;;;;5117776;27;20404;-64
2024/04/02 02:54:52;;;;;;;8.07;2.38;;;6.90;99.90;;;;;;5124479;27;20057;-64
2024/04/02 02:57:38;;;;;;;6.15;2.10;;;6.90;99.90;;;;;;5123134;27;20586;-64
2024/04/02 03:00:24;;;;;;;6.72;2.67;;;6.90;99.90;;;;;;5119862;27;20038;-64
2024/04/02 03:03:10;;;;;;;7.95;2.65;;;7.00;99.90;;;;;;5125929;27;20031;-64
2024/04/02 03:05:57;;;;;;;3.97;1.95;;;7.00;99.90;;;;;;5118193;27;20031;-64
2024/04/02 03:08:42;;;;;;;6.18;2.10;;;7.00;99.90;;;;;;5122203;28;20099;-64
2024/04/02 03:11:28;;;;;;;4.75;2.20;;;7.00;99.90;;;;;;5121615;27;20064;-64
2024/04/02 03:14:14;;;;;;;4.13;2.20;;;7.00;99.90;;;;;;5118784;27;20023;-64
2024/04/02 03:17:06;;;;;;;4.63;2.38;;;7.00;99.90;;;;;;5124454;27;20034;-64
2024/04/02 03:19:52;;;;;;;6.30;2.05;;;7.00;99.90;;;;;;5120365;27;20027;-64
2024/04/02 03:22:38;;;;;;;4.80;1.98;;;7.00;99.90;;;;;;5122647;27;20455;-64
2024/04/02 03:25:24;;;;;;;5.22;2.30;;;7.00;99.90;;;;;;5116883;28;20043;-64
2024/04/02 03:28:10;;;;;;;4.18;2.05;;;7.10;99.90;;;;;;5120559;28;20023;-64
2024/04/02 03:30:57;;;;;;;6.45;2.22;;;7.00;99.90;;;;;;5117529;28;20412;-64
2024/04/02 03:33:44;;;;;;;4.95;2.10;;;7.00;99.90;;;;;;5119821;27;20055;-64
2024/04/02 03:36:30;;;;;;;18.00;3.15;;;7.00;99.90;;;;;;5125261;27;20039;-64
2024/04/02 03:39:15;;;;;;;7.57;2.30;;;6.90;99.90;;;;;;5121546;28;20039;-64
2024/04/02 03:42:01;;;;;;;4.88;2.25;;;6.90;99.90;;;;;;5113650;28;20857;-64
2024/04/02 03:44:47;;;;;;;3.88;1.85;;;6.90;99.90;;;;;;5115498;28;20031;-64
2024/04/02 03:47:33;;;;;;;8.50;2.20;;;6.80;99.90;;;;;;5121251;28;20405;-64
2024/04/02 03:50:19;;;;;;;6.30;2.03;;;6.80;99.90;;;;;;5116714;28;20702;-64
2024/04/02 03:53:05;;;;;;;5.03;2.10;;;6.80;99.90;;;;;;5119399;27;20107;-64
2024/04/02 03:56:03;;;;;;;7.25;2.10;;;6.80;99.90;;;;;;5121480;27;20031;-64
2024/04/02 03:58:49;;;;;;;6.45;2.35;;;6.70;99.90;;;;;;5118005;27;20697;-64
2024/04/02 04:01:35;;;;;;;9.43;2.30;;;6.80;99.90;;;;;;5122136;27;20442;-64
2024/04/02 04:04:20;;;;;;;4.40;2.30;;;6.80;99.90;;;;;;5126542;27;20027;-64
2024/04/02 04:07:07;;;;;;;9.18;2.80;;;6.80;99.90;;;;;;5123026;27;20035;-64
2024/04/02 04:09:52;;;;;;;5.60;2.27;;;6.80;99.90;;;;;;5122765;27;20069;-64
2024/04/02 04:12:39;;;;;;;8.20;2.70;;;6.80;99.90;;;;;;5126325;27;20311;-64
2024/04/02 04:15:25;;;;;;;5.13;2.63;;;6.80;99.90;;;;;;5122606;27;20104;-64
2024/04/02 04:18:10;;;;;;;7.97;2.55;;;6.80;99.90;;;;;;5124851;27;20067;-64
2024/04/02 04:20:58;;;;;;;6.28;2.30;;;6.80;99.90;;;;;;5125836;27;20023;-64
2024/04/02 04:23:44;;;;;;;5.75;2.22;;;6.80;99.90;;;;;;5124923;27;20444;-64
2024/04/02 04:26:31;;;;;;;5.72;2.35;;;6.80;99.90;;;;;;5123455;27;20027;-64
2024/04/02 04:29:17;;;;;;;;;;;6.80;99.90;;;;;;5124071;27;20438;-64
2024/04/02 04:32:03;;;;;;;6.72;2.25;;;6.80;99.90;;;;;;5124833;27;19922;-64
2024/04/02 04:34:49;;;;;;;5.18;2.08;;;6.80;99.90;;;;;;5121701;27;20124;-64
2024/04/02 04:37:34;;;;;;;8.45;2.13;;;6.80;99.90;;;;;;5125990;27;20047;-64
2024/04/02 04:40:20;;;;;;;5.32;2.00;;;6.80;99.90;;;;;;5124302;27;20031;-64
2024/04/02 04:43:06;;;;;;;6.25;2.47;;;6.80;99.90;;;;;;5125285;27;20037;-64
2024/04/02 04:45:57;;;;;;;4.10;1.98;;;6.80;99.90;;;;;;5122740;27;20521;-64
2024/04/02 04:48:43;;;;;;;5.10;2.03;;;6.90;99.90;;;;;;5126106;27;20035;-65
2024/04/02 04:51:28;;;;;;;5.50;2.05;;;6.80;99.90;;;;;;5117378;27;20112;-64
2024/04/02 04:54:14;;;;;;;4.63;1.80;;;6.90;99.90;;;;;;5124908;27;20764;-64
2024/04/02 04:57:01;;;;;;;6.80;1.90;;;6.80;99.90;;;;;;5122959;27;20550;-64
2024/04/02 04:59:47;;;;;;;6.60;1.77;;;6.80;99.90;;;;;;5122025;27;20118;-64
2024/04/02 05:02:32;;;;;;;4.82;1.98;;;6.80;99.90;;;;;;5123879;27;20146;-64
2024/04/02 05:05:18;;;;;;;8.85;3.17;;;6.80;99.90;;;;;;5120876;27;20099;-64
2024/04/02 05:08:16;;;;;;;4.30;2.10;;;6.80;99.90;;;;;;5124811;27;20094;-64
2024/04/02 05:11:05;;;;;;;4.88;2.20;;;6.80;99.90;;;;;;5121354;27;20019;-64
2024/04/02 05:13:51;;;;;;;8.18;1.95;;;6.80;99.90;;;;;;5125590;27;20076;-64
2024/04/02 05:16:37;;;;;;;4.82;1.80;;;6.80;99.90;;;;;;5123158;27;20046;-64
2024/04/02 05:19:23;;;;;;;7.95;2.28;;;6.80;99.90;;;;;;5119994;27;20494;-64
2024/04/02 05:22:10;;;;;;;2.75;1.27;;;6.80;99.90;;;;;;5125219;27;20039;-64
2024/04/02 05:24:55;;;;;;;4.30;1.13;;;6.70;99.90;;;;;;5120636;27;20039;-64
2024/04/02 05:27:41;;;;;;;6.22;1.95;;;6.70;99.90;;;;;;5122775;27;20070;-64
2024/04/02 05:30:27;;;;;;;4.53;1.20;;;6.70;99.90;;;;;;5121864;27;20596;-64
2024/04/02 05:33:13;;;;;;;6.23;1.60;;;6.70;99.90;;;;;;5124365;27;20027;-64
2024/04/02 05:36:00;;;;;;;2.90;1.27;;;6.70;99.90;;;;;;5121596;27;20039;-64
2024/04/02 05:38:46;;;;;;;4.07;1.40;;;6.80;99.90;;;;;;5122436;27;20031;-64
2024/04/02 05:41:32;;;;;;;13.38;1.80;;;6.80;99.90;;;;;;5123069;27;20432;-64
2024/04/02 05:44:18;;;;;;;5.30;1.15;;;6.80;99.90;;;;;;5123731;27;20039;-64
2024/04/02 05:47:04;;;;;;;8.13;1.60;;;6.80;99.90;;;;;;5124317;27;20033;-64
2024/04/02 05:49:50;;;;;;;3.92;1.25;;;6.90;99.90;;;;;;5117238;27;20364;-64
2024/04/02 05:52:36;;;;;;;5.22;1.40;;;6.90;99.90;;;;;;5121198;27;20038;-64
2024/04/02 05:55:22;;;;;;;5.97;1.40;;;6.80;99.90;;;;;;5118802;27;20547;-64
2024/04/02 05:58:08;;;;;;;5.40;1.45;;;6.80;99.90;;;;;;5122963;27;20031;-64
2024/04/02 06:01:06;;;;;;;3.65;1.65;;;6.90;99.90;;;;;;5116133;27;20085;-64
2024/04/02 06:03:52;;;;;;;5.85;1.88;;;6.90;99.90;;;;;;5120939;27;20019;-64
2024/04/02 06:06:38;;;;;;;2.55;1.02;;;6.90;99.90;;;;;;5121350;27;20027;-64
2024/04/02 06:09:24;;;;;;;3.33;1.67;;;6.90;99.90;;;;;;5122549;27;20035;-64
2024/04/02 06:12:10;;;;;;;3.45;1.23;;;6.90;99.90;;;;;;5122586;27;20027;-64
2024/04/02 06:14:56;;;;;;;4.05;0.75;;;6.90;99.90;;;;;;5118510;27;20031;-64
2024/04/02 06:17:42;;;;;;;6.13;1.10;;;6.90;99.90;;;;;;5118583;27;20088;-64
2024/04/02 06:20:27;;;;;;;4.97;0.93;;;6.90;99.90;;;;;;5121543;27;20149;-64
2024/04/02 06:23:13;;;;;;;4.82;1.13;;;7.00;99.90;;;;;;5119255;27;20031;-64
2024/04/02 06:25:59;;;;;;;3.45;0.90;;;7.00;99.90;;;;;;5121570;27;20104;-64
2024/04/02 06:28:45;;;;;;;6.05;1.10;;;7.00;99.90;;;;;;5122022;27;20502;-64
2024/04/02 06:31:31;;;;;;;3.08;0.82;;;7.00;99.90;;;;;;5113716;27;20088;-64
2024/04/02 06:34:17;;;;;;;8.37;1.00;;;7.00;99.90;;;;;;5121272;27;20624;-64
2024/04/02 06:37:03;;;;;;;3.28;0.70;;;7.00;99.90;;;;;;5122553;27;20104;-64
2024/04/02 06:39:49;;;;;;;6.00;1.43;;;6.90;99.90;;;;;;5117241;27;20057;-64
2024/04/02 06:42:35;;;;;;;2.42;0.98;;;6.90;99.90;;;;;;5123230;27;20078;-64
2024/04/02 06:45:21;;;;;;;2.63;0.70;;;6.90;99.90;;;;;;5117677;27;20031;-64
2024/04/02 06:48:06;;;;;;;3.75;0.95;;;7.00;99.90;;;;;;5122431;27;20122;-65
2024/04/02 06:51:02;;;;;;;3.50;0.93;;;7.10;99.90;;;;;;5116646;27;20443;-65
2024/04/02 06:53:48;;;;;;;8.15;1.02;;;7.10;99.90;;;;;;5119192;27;20035;-64
2024/04/02 06:56:34;;;;;;;3.05;0.70;;;7.10;99.90;;;;;;5121227;27;20031;-64
2024/04/02 06:59:20;;;;;;;1.63;0.60;;;7.20;99.90;;;;;;5120083;27;20103;-64
2024/04/02 07:02:06;;;;;;;0.90;0.50;;;7.20;99.90;;;;;;5117446;27;20043;-63
2024/04/02 07:04:52;;;;;;;4.03;0.80;;;7.30;99.90;;;;;;5120039;27;20823;-64
2024/04/02 07:07:38;;;;;;;0.80;0.40;;;7.30;99.90;;;;;;5122945;28;20085;-64
2024/04/02 07:10:24;;;;;;;1.60;0.60;;;7.30;99.90;;;;;;5118743;27;20039;-64
2024/04/02 07:13:10;;;;;;;2.03;0.43;;;7.30;99.90;;;;;;5121741;27;20105;-64
2024/04/02 07:15:56;;;;;;;1.58;0.50;;;7.30;99.90;;;;;;5116401;27;20035;-64
2024/04/02 07:18:42;;;;;;;5.35;1.13;;;7.30;99.90;;;;;;5117736;28;20031;-64
2024/04/02 07:21:27;;;;;;;3.63;0.40;;;7.40;99.90;;;;;;5120334;28;20039;-64
2024/04/02 07:24:13;;;;;;;3.40;0.40;;;7.60;99.90;;;;;;5115583;28;20027;-64
2024/04/02 07:27:00;;;;;;;2.92;0.32;;;7.60;99.90;;;;;;5119508;27;20104;-64
2024/04/02 07:29:45;;;;;;;3.72;0.50;;;7.60;99.90;;;;;;5119716;27;20086;-64
2024/04/02 07:32:31;;;;;;;2.13;0.47;;;7.60;99.90;;;;;;5124228;27;20548;-64
2024/04/02 07:35:18;;;;;;;1.63;0.55;;;7.60;99.90;;;;;;5122976;27;20050;-64
2024/04/02 07:38:04;;;;;;;2.40;0.63;;;7.50;99.90;;;;;;5125796;27;20133;-64
2024/04/02 07:40:50;;;;;;;0.93;0.40;;;7.50;99.90;;;;;;5118582;27;20020;-64
2024/04/02 07:43:36;;;;;;;0.52;0.28;;;7.50;99.90;;;;;;5125004;27;20042;-64
2024/04/02 07:46:22;;;;;;;1.88;0.40;;;7.60;99.90;;;;;;5122235;27;20071;-64
2024/04/02 07:49:08;;;;;;;1.25;0.60;;;7.70;99.90;;;;;;5124274;27;20035;-64
2024/04/02 07:51:54;;;;;;;1.08;0.60;;;7.80;99.90;;;;;;5124926;27;20495;-64
2024/04/02 07:54:39;;;;;;;2.97;0.40;;;7.90;99.90;;;;;;5124952;27;20027;-64
2024/04/02 07:57:25;;;;;;;2.55;0.60;;;7.90;99.90;;;;;;5124646;27;20035;-64
2024/04/02 08:00:12;;;;;;;1.73;0.55;;;7.90;99.90;;;;;;5124391;27;20031;-64
2024/04/02 08:02:58;;;;;;;2.33;0.90;;;7.90;99.90;;;;;;5120725;27;20043;-65
2024/04/02 08:05:44;;;;;;;3.35;1.17;;;8.00;99.90;;;;;;5122836;27;20031;-67
2024/04/02 08:08:29;;;;;;;1.83;1.00;;;8.00;99.90;;;;;;5124107;27;20035;-65
2024/04/02 08:11:15;;;;;;;2.45;0.77;;;8.30;99.90;;;;;;5119730;27;20027;-64
2024/04/02 08:14:01;;;;;;;8.68;1.13;;;8.40;99.90;;;;;;5124075;27;20027;-64
2024/04/02 08:16:47;;;;;;;6.15;1.05;;;8.40;99.90;;;;;;5122831;27;20431;-64
2024/04/02 08:19:33;;;;;;;3.50;0.82;;;8.60;99.90;;;;;;5124625;27;20031;-63
2024/04/02 08:22:19;;;;;;;4.25;0.93;;;8.90;99.90;;;;;;5121668;27;20034;-64
2024/04/02 08:25:07;;;;;;;4.00;0.90;;;8.90;99.90;;;;;;5117608;27;20361;-64
2024/04/02 08:27:52;;;;;;;3.72;0.60;;;9.40;99.90;;;;;;5110054;27;20057;-64
2024/04/02 08:30:38;;;;;;;0.98;0.40;;;10.30;99.90;;;;;;5123303;27;20136;-64
2024/04/02 08:33:28;;;;;;;4.60;0.43;;;9.90;99.90;;;;;;5126271;27;20088;-63
2024/04/02 08:36:13;;;;;;;1.98;0.40;;;9.50;99.90;;;;;;5119559;27;20051;-65
2024/04/02 08:38:59;;;;;;;3.33;0.82;;;9.20;99.90;;;;;;5119634;27;20027;-64
2024/04/02 08:41:46;;;;;;;4.25;0.80;;;9.10;99.90;;;;;;5122711;27;20096;-64
2024/04/02 08:44:35;;;;;;;7.28;0.90;;;9.50;99.90;;;;;;5124868;27;20087;-64
2024/04/02 08:47:23;;;;;;;6.68;1.27;;;9.90;99.90;;;;;;5116238;27;20031;-64
2024/04/02 08:50:11;;;;;;;5.20;1.20;;;10.20;99.90;;;;;;5116820;27;20054;-64
2024/04/02 08:52:57;;;;;;;9.52;2.08;;;10.10;99.90;;;;;;5120354;27;20089;-63
2024/04/02 08:55:45;;;;;;;9.02;1.70;;;9.70;99.90;;;;;;5120250;27;20035;-63
2024/04/02 08:58:33;;;;;;;6.22;1.48;;;9.40;99.90;;;;;;5119465;27;20039;-64
2024/04/02 09:01:19;;;;;;;10.18;2.05;;;9.10;99.90;;;;;;5118562;27;20039;-64
2024/04/02 09:04:05;;;;;;;11.55;2.10;;;9.30;99.90;;;;;;5125415;27;20031;-63
2024/04/02 09:06:51;;;;;;;5.40;0.93;;;9.50;99.90;;;;;;5122539;27;20467;-63
2024/04/02 09:09:37;;;;;;;6.57;1.53;;;9.90;99.90;;;;;;5116179;27;20471;-64
2024/04/02 09:12:23;;;;;;;11.07;1.63;;;10.20;99.90;;;;;;5121798;27;20040;-63
2024/04/02 09:15:09;;;;;;;9.27;1.00;;;10.40;99.90;;;;;;5120553;27;20031;-65
2024/04/02 09:17:55;;;;;;;5.97;1.75;;;10.40;99.90;;;;;;5121209;27;20042;-64
2024/04/02 09:20:41;;;;;;;7.15;1.25;;;10.50;99.90;;;;;;5122691;27;20043;-64
2024/04/02 09:23:27;;;;;;;7.05;1.40;;;10.50;99.90;;;;;;5122959;27;20610;-64
2024/04/02 09:26:14;;;;;;;9.48;1.38;;;10.60;99.90;;;;;;5106662;27;20122;-64
2024/04/02 09:29:00;;;;;;;5.07;1.15;;;10.50;99.90;;;;;;5131791;27;20046;-64
2024/04/02 09:31:48;;;;;;;4.45;1.25;;;10.40;99.90;;;;;;5119377;27;20031;-64
2024/04/02 09:34:34;;;;;;;11.27;1.60;;;10.30;99.90;;;;;;5118837;27;20039;-64
2024/04/02 09:37:35;;;;;;;8.38;1.70;;;10.10;99.90;;;;;;5129434;27;20376;-64
2024/04/02 09:40:24;;;;;;;3.72;1.10;;;10.10;99.90;;;;;;5122430;27;20045;-64
2024/04/02 09:43:10;;;;;;;10.15;1.60;;;10.00;99.90;;;;;;5121660;27;20734;-64
2024/04/02 09:46:00;;;;;;;6.43;1.23;;;9.70;99.90;;;;;;5102330;27;20039;-62
2024/04/02 09:48:48;;;;;;;6.85;1.27;;;9.60;99.90;;;;;;5121421;27;20039;-64
2024/04/02 09:51:35;;;;;;;10.15;1.33;;;9.60;99.90;;;;;;5121133;27;20392;-63
2024/04/02 09:54:22;;;;;;;10.32;2.10;;;9.60;99.90;;;;;;5123298;27;20031;-64
2024/04/02 09:57:10;;;;;;;18.63;1.77;;;9.60;99.90;;;;;;5132481;27;20039;-63
2024/04/02 09:59:56;;;;;;;9.45;1.40;;;9.50;99.90;;;;;;5126574;27;20039;-65
2024/04/02 10:02:43;;;;;;;6.68;1.35;;;9.50;99.90;;;;;;5110919;27;20090;-63
2024/04/02 10:05:32;;;;;;;6.90;1.50;;;9.70;99.90;;;;;;5126762;27;20039;-64
2024/04/02 10:08:24;;;;;;;5.40;1.55;;;9.80;99.90;;;;;;5127444;27;20733;-64
2024/04/02 10:11:10;;;;;;;7.07;1.35;;;9.90;99.90;;;;;;5122119;27;20242;-64
2024/04/02 10:14:11;;;;;;;8.03;1.30;;;9.70;99.90;;;;;;5121044;27;20149;-64
2024/04/02 10:16:57;;;;;;;6.85;1.63;;;9.60;99.90;;;;;;5122697;27;20035;-64
2024/04/02 10:19:47;;;;;;;7.95;1.38;;;9.50;99.90;;;;;;5122424;27;20034;-64
2024/04/02 10:22:36;;;;;;;8.65;2.17;;;9.50;99.90;;;;;;5123284;27;20090;-64
2024/04/02 10:25:24;;;;;;;6.57;1.45;;;9.60;99.90;;;;;;5117791;27;20050;-64
2024/04/02 10:28:10;;;;;;;9.15;1.52;;;9.80;99.90;;;;;;5118274;27;20445;-64
2024/04/02 10:30:56;;;;;;;7.65;1.77;;;10.00;99.90;;;;;;5114480;27;20114;-64
2024/04/02 10:33:43;;;;;;;10.18;1.50;;;10.20;99.90;;;;;;5122745;27;20031;-64
2024/04/02 10:36:29;;;;;;;10.18;2.13;;;10.40;99.90;;;;;;5121669;27;20031;-64
2024/04/02 10:39:15;;;;;;;5.68;1.33;;;10.60;99.90;;;;;;5122009;27;20035;-64
2024/04/02 10:42:03;;;;;;;8.98;1.52;;;10.50;99.90;;;;;;5115311;27;20023;-64
2024/04/02 10:44:49;;;;;;;13.18;2.45;;;10.50;99.90;;;;;;5095420;27;20130;-64
2024/04/02 10:47:36;;;;;;;4.43;1.42;;;10.60;99.90;;;;;;5121902;27;20030;-64
2024/04/02 10:50:24;;;;;;;7.93;1.50;;;10.60;99.90;;;;;;5119209;27;20660;-64
2024/04/02 10:53:10;;;;;;;6.68;1.70;;;10.70;99.90;;;;;;5119342;27;20076;-64
2024/04/02 10:56:03;;;;;;;7.05;1.20;;;10.70;99.90;;;;;;5116589;27;20027;-64
2024/04/02 10:58:53;;;;;;;4.50;1.45;;;10.60;99.90;;;;;;5119874;27;20058;-64
2024/04/02 11:01:39;;;;;;;5.47;1.02;;;10.50;99.90;;;;;;5120597;27;20046;-64
2024/04/02 11:04:25;;;;;;;10.25;1.98;;;10.70;99.90;;;;;;5122769;27;20027;-64
2024/04/02 11:07:11;;;;;;;4.45;1.17;;;10.70;99.90;;;;;;5120385;28;20067;-64
2024/04/02 11:09:58;;;;;;;7.07;1.17;;;10.90;99.90;;;;;;5112431;27;20411;-64
2024/04/02 11:12:44;;;;;;;4.65;1.70;;;11.20;99.90;;;;;;5119831;27;20104;-64
2024/04/02 11:15:30;;;;;;;6.20;1.30;;;11.30;99.90;;;;;;5120109;28;20023;-64
2024/04/02 11:18:23;;;;;;;7.40;1.00;;;11.30;99.90;;;;;;5121882;27;20608;-64
2024/04/02 11:21:15;;;;;;;4.20;1.13;;;11.50;99.90;;;;;;5114901;27;20403;-64
2024/04/02 11:27:06;;;;;;;7.90;1.27;;;11.60;99.90;;;;;;5116605;27;20042;-64
2024/04/02 11:29:55;;;;;;;6.13;1.60;;;11.70;99.90;;;;;;5120858;27;20062;-64
2024/04/02 11:32:41;;;;;;;5.47;1.23;;;11.50;99.90;;;;;;5119535;27;20036;-64
2024/04/02 11:35:29;;;;;;;3.72;1.20;;;11.50;99.90;;;;;;5120014;28;20028;-64
2024/04/02 11:38:15;;;;;;;7.72;1.13;;;11.50;99.90;;;;;;5115329;27;20129;-64
2024/04/02 11:41:05;;;;;;;3.83;0.90;;;11.70;99.90;;;;;;5120566;27;20035;-64
2024/04/02 11:43:51;;;;;;;5.70;1.33;;;11.60;99.90;;;;;;5124522;27;20451;-64
2024/04/02 11:46:37;;;;;;;4.68;1.23;;;11.60;99.90;;;;;;5116037;28;20096;-64
2024/04/02 11:49:23;;;;;;;11.43;1.55;;;11.40;99.90;;;;;;5118167;28;20082;-64
2024/04/02 11:52:09;;;;;;;6.47;1.55;;;11.20;99.90;;;;;;5117238;28;20011;-64
2024/04/02 11:54:55;;;;;;;3.03;0.88;;;10.90;99.90;;;;;;5114483;27;20526;-64
2024/04/02 12:00:46;;;;;;;2.33;0.60;;;10.40;99.90;;;;;;5111972;27;20039;-64
2024/04/02 12:03:32;;;;;;;5.50;1.10;;;10.60;99.90;;;;;;5122006;28;20114;-64
2024/04/02 12:06:18;;;;;;;4.97;0.73;;;10.50;99.90;;;;;;5114626;27;20615;-64
2024/04/02 12:09:04;;;;;;;6.75;1.30;;;10.50;99.90;;;;;;5119657;27;20033;-64
2024/04/02 12:11:50;;;;;;;2.17;0.63;;;10.40;99.90;;;;;;5118090;27;20495;-64
2024/04/02 12:14:36;;;;;;;4.03;0.60;;;10.50;99.90;;;;;;5123486;27;20031;-64
2024/04/02 12:17:22;;;;;;;2.05;0.70;;;10.50;99.90;;;;;;5119882;27;20019;-64
2024/04/02 12:20:09;;;;;;;5.05;0.82;;;10.70;99.90;;;;;;5123281;27;20050;-64
2024/04/02 12:22:55;;;;;;;2.92;0.73;;;10.70;99.90;;;;;;5122946;27;20042;-64
2024/04/02 12:25:41;;;;;;;5.55;0.73;;;10.90;99.90;;;;;;5122376;27;20125;-65
2024/04/02 12:28:27;;;;;;;1.87;0.47;;;11.00;99.90;;;;;;5122901;27;20031;-64
2024/04/02 12:31:13;;;;;;;1.17;0.52;;;11.10;99.90;;;;;;5118666;27;20281;-64
2024/04/02 12:33:58;;;;;;;3.85;0.80;;;10.80;99.90;;;;;;5123766;27;20126;-64
2024/04/02 12:36:45;;;;;;;3.53;0.77;;;10.80;99.90;;;;;;5121860;27;20031;-64
2024/04/02 12:39:34;;;;;;;1.83;0.55;;;10.80;99.90;;;;;;5124468;27;20042;-64
2024/04/02 12:42:19;;;;;;;3.35;0.57;;;10.90;99.90;;;;;;5124200;27;20112;-64
2024/04/02 12:45:06;;;;;;;1.85;0.50;;;11.10;99.90;;;;;;5122313;27;20035;-64
2024/04/02 12:47:52;;;;;;;2.75;0.57;;;11.20;99.90;;;;;;5125625;27;20109;-64
2024/04/02 12:50:38;;;;;;;5.10;0.50;;;11.30;99.90;;;;;;5122825;27;20031;-64
2024/04/02 12:53:24;;;;;;;5.65;1.35;;;11.10;99.90;;;;;;5124718;27;20031;-64
2024/04/02 12:56:10;;;;;;;1.88;0.50;;;11.10;99.90;;;;;;5119629;27;20035;-64
2024/04/02 12:58:56;;;;;;;3.38;0.35;;;11.20;99.90;;;;;;5127393;27;20512;-64
2024/04/02 13:01:42;;;;;;;3.63;0.60;;;11.20;99.90;;;;;;5121794;27;20754;-64
2024/04/02 13:04:28;;;;;;;3.38;0.60;;;11.30;99.90;;;;;;5121032;27;20035;-64
2024/04/02 13:07:14;;;;;;;2.05;0.43;;;11.20;99.90;;;;;;5119497;27;20451;-64
2024/04/02 13:10:02;;;;;;;1.30;0.57;;;11.30;99.90;;;;;;5121917;27;20027;-64
2024/04/02 13:12:48;;;;;;;4.45;0.50;;;11.20;99.90;;;;;;5106916;27;20028;-64
2024/04/02 13:15:34;;;;;;;3.42;0.70;;;11.20;99.90;;;;;;5122670;27;20031;-64
2024/04/02 13:18:20;;;;;;;2.10;0.50;;;11.20;99.90;;;;;;5122362;27;20054;-64
2024/04/02 13:21:06;;;;;;;0.98;0.50;;;11.10;99.90;;;;;;5118451;27;20206;-64
2024/04/02 13:23:51;;;;;;;5.68;0.60;;;11.10;99.90;;;;;;5125893;27;20690;-64
2024/04/02 13:26:37;;;;;;;1.05;0.50;;;11.20;99.90;;;;;;5120477;27;20042;-64
2024/04/02 13:29:23;;;;;;;2.15;0.30;;;11.40;99.90;;;;;;5123658;27;20036;-64
2024/04/02 13:32:09;;;;;;;3.72;0.65;;;11.40;99.90;;;;;;5118417;27;20023;-64
2024/04/02 13:34:55;;;;;;;1.83;0.40;;;11.20;99.90;;;;;;5122772;27;20081;-64
2024/04/02 13:37:42;;;;;;;4.28;0.50;;;11.40;99.90;;;;;;5120540;27;20416;-64
2024/04/02 13:40:28;;;;;;;1.98;0.45;;;11.40;99.90;;;;;;5117985;27;20039;-64
2024/04/02 13:43:13;;;;;;;0.43;0.20;;;11.10;99.90;;;;;;5122404;27;20031;-64
2024/04/02 13:46:00;;;;;;;1.75;0.80;;;10.90;99.90;;;;;;5119753;27;20118;-64
2024/04/02 13:48:47;;;;;;;;;;;10.60;99.90;;;;;;5106783;27;20042;-64
2024/04/02 13:51:33;;;;;;;0.90;0.40;;;10.60;99.90;;;;;;5123779;27;21414;-64
2024/04/02 13:54:19;;;;;;;2.28;0.40;;;10.40;99.90;;;;;;5122561;27;20102;-64
2024/04/02 13:57:05;;;;;;;1.20;0.22;;;10.20;99.90;;;;;;5104795;27;20035;-64
2024/04/02 13:59:52;;;;;;;0.57;0.20;;;10.00;99.90;;;;;;5113563;27;20035;-64
2024/04/02 14:02:39;;;;;;;1.23;0.30;;;9.80;99.90;;;;;;5107662;27;20516;-64
2024/04/02 14:05:25;;;;;;;0.80;0.30;;;9.60;99.90;;;;;;5124633;27;20054;-64
2024/04/02 14:08:11;;;;;;;3.22;0.40;;;9.50;99.90;;;;;;5125735;27;20600;-64
2024/04/02 14:10:58;;;;;;;0.77;0.20;;;9.40;99.90;;;;;;5133602;27;20037;-64
2024/04/02 14:13:44;;;;;;;;;;;9.40;99.90;;;;;;5129640;27;20453;-64
2024/04/02 14:16:30;;;;;;;0.85;0.40;;;9.70;99.90;;;;;;5120711;27;19911;-64
2024/04/02 14:19:16;;;;;;;0.47;0.22;;;9.90;99.90;;;;;;5124182;27;20484;-67
2024/04/02 14:22:01;;;;;;;2.58;0.40;;;10.20;99.90;;;;;;5121686;27;20103;-63
2024/04/02 14:24:47;;;;;;;1.13;0.32;;;10.30;99.90;;;;;;5127191;27;20965;-63
2024/04/02 14:27:33;;;;;;;1.25;0.50;;;10.40;99.90;;;;;;5123235;27;20054;-64
2024/04/02 14:30:19;;;;;;;1.50;0.60;;;10.30;99.90;;;;;;5122559;27;20031;-63
2024/04/02 14:33:05;;;;;;;2.35;0.60;;;10.20;99.90;;;;;;5121523;27;20889;-64
2024/04/02 14:35:51;;;;;;;4.55;0.65;;;10.00;99.90;;;;;;5117469;27;20027;-63
2024/04/02 14:38:36;;;;;;;1.23;0.40;;;9.60;99.90;;;;;;5124541;27;20031;-64
2024/04/02 14:41:22;;;;;;;0.85;0.45;;;9.30;99.90;;;;;;5124668;27;20031;-63